Time;durP1;ratioP1;P1;durP2;ratioP2;P2;SDS_P1;SDS_P2;PMS_P1;PMS_P2;Temp;Humidity;BMP_temperature;BMP_pressure;BME280_temperature;BME280_humidity;BME280_pressure;Samples;Min_cycle;Max_cycle;Signal;HPM_P1;HPM_P2
2022/12/08 00:01:22;;;;;;;12.30;4.30;;;;;;;9.03;64.76;101061.69;5070599;28;20108;-74
2022/12/08 00:03:48;;;;;;;8.90;4.13;;;;;;;9.07;63.92;101066.44;5070674;28;20044;-73
2022/12/08 00:09:22;;;;;;;9.68;4.32;;;;;;;9.31;64.74;101055.03;5070315;28;20302;-73
2022/12/08 00:12:08;;;;;;;12.35;5.43;;;;;;;9.25;64.24;101049.69;5070008;28;20040;-74
2022/12/08 00:14:36;;;;;;;8.30;4.72;;;;;;;9.31;63.93;101044.31;5069791;28;20037;-73
2022/12/08 00:17:03;;;;;;;16.80;6.43;;;;;;;9.27;63.81;101036.91;5070305;28;20032;-74
2022/12/08 00:19:29;;;;;;;14.82;4.85;;;;;;;9.19;65.22;101024.56;5069842;28;20072;-74
2022/12/08 00:21:55;;;;;;;15.00;5.05;;;;;;;9.74;62.25;101029.25;5070518;28;20047;-74
2022/12/08 00:24:22;;;;;;;12.85;5.38;;;;;;;9.25;64.41;101026.38;5069993;28;20040;-72
2022/12/08 00:26:48;;;;;;;12.60;5.03;;;;;;;9.71;62.96;101028.84;5069909;28;20090;-74
2022/12/08 00:29:13;;;;;;;9.90;4.93;;;;;;;9.60;63.16;101022.31;5069929;28;20058;-73
2022/12/08 00:31:39;;;;;;;13.60;5.80;;;;;;;9.98;61.89;101018.78;5069923;28;20036;-74
2022/12/08 00:34:05;;;;;;;12.95;5.88;;;;;;;9.70;63.17;101017.31;5070111;28;20549;-74
2022/12/08 00:36:30;;;;;;;10.55;5.72;;;;;;;9.24;65.27;101003.28;5070052;28;20033;-73
2022/12/08 00:38:56;;;;;;;13.73;5.40;;;;;;;9.46;64.25;101011.84;5069446;28;20028;-75
2022/12/08 00:44:08;;;;;;;6.50;3.78;;;;;;;8.60;68.37;101000.56;5069515;28;20081;-73
2022/12/08 00:46:33;;;;;;;8.68;4.68;;;;;;;8.57;68.65;101005.53;5069824;28;20395;-73
2022/12/08 00:48:59;;;;;;;14.27;5.18;;;;;;;8.79;67.90;101007.75;5070340;28;20028;-74
2022/12/08 00:51:24;;;;;;;9.68;5.18;;;;;;;8.37;69.56;101002.84;5069789;28;20066;-74
2022/12/08 00:53:49;;;;;;;8.30;5.03;;;;;;;8.23;70.50;101003.88;5069791;28;20056;-76
2022/12/08 00:56:15;;;;;;;11.82;7.05;;;;;;;8.56;70.14;100999.34;5073271;28;20059;-77
2022/12/08 00:58:40;;;;;;;11.65;6.05;;;;;;;8.15;70.56;100988.00;5073399;28;20085;-73
2022/12/08 01:01:10;;;;;;;11.90;4.93;;;;;;;8.51;70.12;100993.78;5071347;28;20056;-74
2022/12/08 01:03:35;;;;;;;11.05;5.55;;;;;;;8.46;70.69;100998.09;5053156;28;20520;-74
2022/12/08 01:06:05;;;;;;;22.90;7.05;;;;;;;8.67;69.85;100989.84;5062293;28;20035;-75
2022/12/08 01:08:30;;;;;;;10.82;5.63;;;;;;;8.40;70.69;100975.66;5073180;28;20056;-73
2022/12/08 01:11:02;;;;;;;13.10;5.00;;;;;;;8.83;69.33;100967.94;5073389;28;20044;-73
2022/12/08 01:13:27;;;;;;;13.50;5.20;;;;;;;8.44;70.36;100968.88;5073150;28;20033;-74
2022/12/08 01:15:52;;;;;;;9.70;5.38;;;;;;;8.40;69.92;100969.47;5071305;28;20040;-75
2022/12/08 01:18:18;;;;;;;12.60;5.95;;;;;;;8.18;71.37;100968.00;5072761;28;20330;-75
2022/12/08 01:20:43;;;;;;;10.48;5.20;;;;;;;8.23;71.10;100965.56;5073101;28;20523;-74
2022/12/08 01:23:08;;;;;;;11.30;5.72;;;;;;;8.61;70.42;100962.03;5071594;28;20457;-74
2022/12/08 01:25:34;;;;;;;10.85;5.80;;;;;;;8.23;71.08;100960.22;5068401;28;20131;-73
2022/12/08 01:27:59;;;;;;;11.40;6.63;;;;;;;8.29;70.80;100964.75;5053224;28;20106;-75
2022/12/08 01:30:25;;;;;;;4.78;3.20;;;;;;;8.13;70.56;100955.28;5052489;28;20136;-74
2022/12/08 01:32:50;;;;;;;6.95;5.25;;;;;;;8.85;68.99;100949.81;5052682;28;20063;-74
2022/12/08 01:35:15;;;;;;;9.00;4.20;;;;;;;9.60;64.87;100949.03;5052692;28;20120;-73
2022/12/08 01:37:41;;;;;;;7.28;4.65;;;;;;;9.02;66.89;100945.63;5051404;28;20067;-73
2022/12/08 01:40:07;;;;;;;7.28;5.03;;;;;;;9.30;66.65;100959.53;5053007;28;20499;-74
2022/12/08 01:42:33;;;;;;;7.40;4.15;;;;;;;8.88;68.48;100953.94;5052647;28;20041;-73
2022/12/08 01:45:12;;;;;;;16.63;5.20;;;;;;;9.47;66.32;100960.66;5061118;28;20051;-73
2022/12/08 01:47:43;;;;;;;9.68;4.85;;;;;;;9.00;68.09;100954.94;5055341;28;20400;-74
2022/12/08 01:50:11;;;;;;;12.48;4.45;;;;;;;8.84;69.20;100959.69;5072392;28;20071;-74
2022/12/08 01:52:41;;;;;;;7.68;6.60;;;;;;;8.71;69.25;100948.19;5072595;28;20408;-72
2022/12/08 01:55:24;;;;;;;10.90;7.05;;;;;;;8.68;68.32;100945.94;5072860;28;20029;-74
2022/12/08 01:57:55;;;;;;;14.23;6.43;;;;;;;8.99;68.99;100939.88;5072363;28;20040;-74
2022/12/08 02:00:22;;;;;;;17.77;7.20;;;;;;;8.60;69.02;100946.19;5072213;28;20037;-74
2022/12/08 02:02:59;;;;;;;11.32;5.78;;;;;;;8.81;69.05;100943.22;5071674;28;20040;-73
2022/12/08 02:05:33;;;;;;;8.98;6.18;;;;;;;8.96;68.06;100938.44;5071933;28;20036;-73
2022/12/08 02:08:03;;;;;;;8.90;6.78;;;;;;;8.65;69.36;100943.69;5072027;28;20040;-73
2022/12/08 02:10:31;;;;;;;11.75;6.78;;;;;;;8.84;68.79;100932.91;5072037;28;20123;-73
2022/12/08 02:12:59;;;;;;;11.30;7.28;;;;;;;9.20;66.58;100943.06;5072382;28;20085;-74
2022/12/08 02:15:42;;;;;;;12.00;6.95;;;;;;;8.64;68.59;100934.84;5071740;28;20063;-74
2022/12/08 02:18:38;;;;;;;9.65;6.30;;;;;;;9.05;67.34;100931.81;5070306;28;20094;-72
2022/12/08 02:21:43;;;;;;;10.70;7.05;;;;;;;8.65;70.11;100933.78;5072036;28;20032;-72
2022/12/08 02:24:24;;;;;;;12.82;6.97;;;;;;;8.63;70.29;100929.66;5068048;28;20036;-76
2022/12/08 02:27:35;;;;;;;16.05;9.25;;;;;;;8.73;69.85;100924.69;5071624;28;20048;-74
2022/12/08 02:30:12;;;;;;;8.95;6.78;;;;;;;8.53;69.76;100915.91;5069158;28;20049;-74
2022/12/08 02:33:07;;;;;;;11.30;6.53;;;;;;;8.35;70.62;100921.09;5071817;28;20032;-73
2022/12/08 02:35:49;;;;;;;11.93;7.82;;;;;;;8.41;70.40;100913.03;5071466;28;20036;-74
2022/12/08 02:38:37;;;;;;;15.07;7.70;;;;;;;9.04;68.44;100911.38;5071438;28;20048;-73
2022/12/08 02:41:38;;;;;;;10.80;8.13;;;;;;;9.25;67.36;100912.94;5071489;28;20407;-73
2022/12/08 02:44:23;;;;;;;12.10;7.80;;;;;;;9.30;66.43;100911.25;5028438;28;20079;-73
2022/12/08 02:46:55;;;;;;;10.60;7.85;;;;;;;10.10;63.58;100905.09;5028456;28;20509;-72
2022/12/08 02:49:20;;;;;;;15.82;8.25;;;;;;;9.97;63.66;100912.44;5028752;28;20053;-72
2022/12/08 02:51:45;;;;;;;14.38;7.60;;;;;;;10.10;64.22;100901.63;5029252;28;20033;-73
2022/12/08 02:54:13;;;;;;;14.32;8.80;;;;;;;9.19;66.14;100906.59;5028795;28;20064;-74
2022/12/08 02:57:35;;;;;;;16.98;7.72;;;;;;;9.53;64.71;100900.78;5028640;28;20064;-72
2022/12/08 03:00:12;;;;;;;15.60;9.10;;;;;;;9.79;64.34;100899.78;4950267;28;20035;-75
2022/12/08 03:02:42;;;;;;;15.32;8.20;;;;;;;9.75;65.84;100895.88;4964961;28;20042;-73
2022/12/08 03:05:38;;;;;;;14.00;7.93;;;;;;;10.32;63.57;100908.22;4969593;28;20435;-75
2022/12/08 03:08:26;;;;;;;13.18;6.95;;;;;;;9.71;65.44;100913.44;4969502;28;20418;-75
2022/12/08 03:11:03;;;;;;;9.77;5.70;;;;;;;8.80;68.78;100929.00;4969290;28;20047;-74
2022/12/08 03:13:45;;;;;;;9.75;6.10;;;;;;;9.38;66.57;100921.72;4969347;28;20141;-73
2022/12/08 03:16:14;;;;;;;11.27;4.25;;;;;;;8.97;68.38;100923.16;4969685;28;20047;-76
2022/12/08 03:18:44;;;;;;;9.45;4.90;;;;;;;9.49;65.91;100904.13;4968614;28;20515;-76
2022/12/08 03:21:11;;;;;;;10.52;5.00;;;;;;;9.95;64.16;100899.22;5000065;28;20448;-77
2022/12/08 03:23:38;;;;;;;9.70;5.22;;;;;;;9.30;66.58;100889.81;5028075;28;20049;-77
2022/12/08 03:26:12;;;;;;;7.88;5.00;;;;;;;9.88;64.53;100873.50;5028017;28;20052;-77
2022/12/08 03:28:38;;;;;;;8.25;5.60;;;;;;;9.12;67.60;100878.16;5028195;28;20037;-77
2022/12/08 03:31:07;;;;;;;10.10;6.10;;;;;;;9.27;67.92;100871.47;5060093;28;20501;-75
2022/12/08 03:33:37;;;;;;;12.05;6.93;;;;;;;9.85;64.63;100860.53;5070700;28;20032;-74
2022/12/08 03:36:05;;;;;;;14.40;6.57;;;;;;;9.26;67.18;100855.59;5070582;28;20036;-73
2022/12/08 03:38:38;;;;;;;10.60;6.82;;;;;;;9.43;67.11;100857.56;5070860;28;20848;-75
2022/12/08 03:41:19;;;;;;;9.05;6.68;;;;;;;9.59;67.13;100854.31;5070624;28;20087;-74
2022/12/08 03:43:45;;;;;;;9.20;6.07;;;;;;;9.85;66.12;100842.53;5069739;28;20492;-74
2022/12/08 03:46:10;;;;;;;11.70;6.35;;;;;;;9.76;65.75;100843.88;5070916;28;20081;-74
2022/12/08 03:48:35;;;;;;;12.80;7.68;;;;;;;9.78;64.47;100836.41;5070929;28;20040;-74
2022/12/08 03:51:01;;;;;;;16.50;7.10;;;;;;;9.45;66.04;100838.56;5069049;28;20166;-74
2022/12/08 03:53:26;;;;;;;15.63;6.30;;;;;;;10.19;64.37;100836.66;5070539;28;20052;-74
2022/12/08 03:55:53;;;;;;;9.98;6.70;;;;;;;9.62;65.88;100843.16;5069235;28;20036;-74
2022/12/08 03:58:18;;;;;;;11.98;7.10;;;;;;;9.65;66.46;100847.28;5071000;28;20028;-74
2022/12/08 04:00:43;;;;;;;14.80;7.68;;;;;;;10.04;65.37;100841.56;5070703;28;20043;-73
2022/12/08 04:03:09;;;;;;;13.35;7.32;;;;;;;10.00;64.48;100834.16;5070187;28;20048;-72
2022/12/08 04:05:34;;;;;;;19.58;7.35;;;;;;;10.02;65.26;100834.75;5070309;28;20064;-73
2022/12/08 04:08:00;;;;;;;10.77;7.10;;;;;;;9.16;67.63;100823.09;5070168;28;20048;-74
2022/12/08 04:10:25;;;;;;;14.63;7.22;;;;;;;9.15;69.16;100827.63;5085014;28;20504;-75
2022/12/08 04:12:50;;;;;;;13.25;5.53;;;;;;;8.85;68.91;100826.56;5070653;28;20446;-74
2022/12/08 04:15:16;;;;;;;12.68;6.72;;;;;;;9.65;68.09;100823.94;5085145;28;20045;-72
2022/12/08 04:17:41;;;;;;;13.95;5.50;;;;;;;9.76;65.96;100819.72;5069810;28;20032;-74
2022/12/08 04:20:07;;;;;;;11.27;7.35;;;;;;;9.77;67.28;100815.19;5069997;28;20090;-74
2022/12/08 04:22:32;;;;;;;11.05;4.97;;;;;;;9.49;66.57;100824.47;5068321;28;20123;-74
2022/12/08 04:24:57;;;;;;;8.50;5.45;;;;;;;9.14;68.88;100835.88;5070519;28;20123;-75
2022/12/08 04:27:23;;;;;;;7.00;4.60;;;;;;;10.10;64.86;100813.03;5070041;28;20064;-73
2022/12/08 04:29:48;;;;;;;7.85;4.47;;;;;;;9.06;68.18;100825.41;5073239;28;20071;-73
2022/12/08 04:32:13;;;;;;;8.23;4.38;;;;;;;9.40;67.73;100824.97;5073813;28;20048;-74
2022/12/08 04:34:39;;;;;;;9.32;4.47;;;;;;;9.10;68.86;100832.78;5074053;28;20591;-74
2022/12/08 04:37:04;;;;;;;8.23;4.35;;;;;;;9.30;68.54;100824.63;5074165;28;20492;-72
2022/12/08 04:39:29;;;;;;;6.72;4.13;;;;;;;9.63;67.14;100817.16;5073893;28;20119;-73
2022/12/08 04:41:55;;;;;;;7.55;4.35;;;;;;;9.05;69.02;100826.44;5073842;28;20033;-74
2022/12/08 04:44:20;;;;;;;6.32;4.07;;;;;;;9.93;66.12;100830.69;5073415;28;20040;-78
2022/12/08 04:46:45;;;;;;;5.18;4.00;;;;;;;9.68;66.03;100826.19;5073362;28;20446;-74
2022/12/08 04:49:11;;;;;;;9.27;4.68;;;;;;;9.92;65.37;100816.47;5071959;28;20040;-73
2022/12/08 04:51:36;;;;;;;9.00;5.13;;;;;;;10.02;64.82;100815.97;5058665;28;20036;-73
2022/12/08 04:54:02;;;;;;;6.18;3.83;;;;;;;8.88;68.88;100810.84;5053549;28;20029;-74
2022/12/08 04:56:27;;;;;;;7.10;3.67;;;;;;;9.67;67.04;100811.13;5052166;28;20036;-75
2022/12/08 04:58:52;;;;;;;5.80;2.78;;;;;;;8.40;70.51;100815.00;5053479;28;20040;-74
2022/12/08 05:01:18;;;;;;;6.85;3.38;;;;;;;8.44;72.08;100807.38;5054350;28;20119;-73
2022/12/08 05:03:43;;;;;;;5.72;2.80;;;;;;;8.82;69.77;100811.72;5073092;28;20058;-74
2022/12/08 05:06:11;;;;;;;5.93;3.30;;;;;;;8.57;70.45;100805.47;5059661;28;20515;-75
2022/12/08 05:08:37;;;;;;;5.78;1.58;;;;;;;9.04;68.54;100809.53;5066667;28;20040;-74
2022/12/08 05:11:04;;;;;;;4.40;1.35;;;;;;;8.73;68.46;100809.50;5057848;28;20036;-73
2022/12/08 05:13:30;;;;;;;1.58;1.08;;;;;;;9.04;67.95;100814.09;5052985;28;20028;-74
2022/12/08 05:16:21;;;;;;;1.35;1.10;;;;;;;8.85;69.73;100813.97;5060807;28;20023;-74
2022/12/08 05:18:47;;;;;;;3.38;0.90;;;;;;;8.62;68.91;100810.19;5068870;28;20059;-75
2022/12/08 05:21:12;;;;;;;2.05;0.80;;;;;;;8.53;69.86;100808.81;5072928;28;20443;-73
2022/12/08 05:23:38;;;;;;;2.40;0.98;;;;;;;8.85;69.67;100815.84;5072954;28;20127;-73
2022/12/08 05:26:03;;;;;;;1.80;1.05;;;;;;;8.37;70.96;100817.28;5072823;28;20112;-73
2022/12/08 05:28:28;;;;;;;4.47;1.05;;;;;;;8.12;71.46;100810.97;5072720;28;20403;-74
2022/12/08 05:30:54;;;;;;;1.40;1.00;;;;;;;8.12;70.89;100814.44;5073246;28;20028;-74
2022/12/08 05:33:19;;;;;;;1.83;1.23;;;;;;;8.47;71.15;100813.13;5072617;28;20045;-75
2022/12/08 05:35:44;;;;;;;1.10;0.70;;;;;;;8.24;70.54;100810.09;5072650;28;20047;-74
2022/12/08 05:38:10;;;;;;;4.78;0.95;;;;;;;8.61;69.98;100816.56;5072588;28;20115;-73
2022/12/08 05:40:39;;;;;;;1.95;0.85;;;;;;;8.73;68.47;100806.81;5071766;28;20051;-74
2022/12/08 05:43:05;;;;;;;4.78;1.08;;;;;;;8.44;69.44;100813.56;5072977;28;20064;-75
2022/12/08 05:45:30;;;;;;;1.58;0.98;;;;;;;8.69;68.94;100806.44;5072495;28;20056;-75
2022/12/08 05:47:55;;;;;;;0.85;0.68;;;;;;;8.92;67.67;100803.25;5071844;28;20036;-77
2022/12/08 05:50:21;;;;;;;0.80;0.70;;;;;;;8.91;67.65;100796.22;5070971;28;20124;-76
2022/12/08 05:52:46;;;;;;;5.03;1.50;;;;;;;9.47;66.46;100789.00;5072448;28;20108;-74
2022/12/08 05:55:12;;;;;;;1.52;1.00;;;;;;;9.77;64.34;100798.03;5072800;28;20102;-74
2022/12/08 05:57:37;;;;;;;0.80;0.80;;;;;;;9.25;67.05;100803.84;5072331;28;20045;-75
2022/12/08 06:00:04;;;;;;;1.13;1.00;;;;;;;9.16;65.88;100797.06;5070451;28;20063;-73
2022/12/08 06:02:29;;;;;;;3.78;1.55;;;;;;;9.03;67.27;100797.19;5078018;28;20033;-73
2022/12/08 06:04:54;;;;;;;2.35;1.70;;;;;;;8.96;67.80;100798.25;5069563;28;20262;-74
2022/12/08 06:07:20;;;;;;;2.85;2.13;;;;;;;9.23;66.19;100797.03;5071671;28;20046;-74
2022/12/08 06:09:45;;;;;;;7.75;2.45;;;;;;;9.12;66.98;100795.06;5072388;28;20385;-73
2022/12/08 06:12:10;;;;;;;3.63;2.67;;;;;;;9.23;66.37;100794.38;5069502;28;20032;-73
2022/12/08 06:14:39;;;;;;;10.05;2.63;;;;;;;8.86;67.78;100796.06;5072117;28;20056;-73
2022/12/08 06:17:04;;;;;;;5.53;3.58;;;;;;;9.17;66.40;100795.22;5054029;28;20080;-74
2022/12/08 06:19:30;;;;;;;8.45;3.92;;;;;;;9.60;65.58;100785.38;5051819;28;20065;-73
2022/12/08 06:21:55;;;;;;;8.32;4.35;;;;;;;8.68;68.29;100796.78;5052276;28;20041;-73
2022/12/08 06:24:20;;;;;;;6.38;5.18;;;;;;;9.29;66.98;100796.19;5051786;28;20123;-75
2022/12/08 06:26:46;;;;;;;9.10;5.25;;;;;;;9.69;64.61;100784.88;5039294;28;20135;-74
2022/12/08 06:29:12;;;;;;;9.05;5.80;;;;;;;9.33;66.86;100794.69;5063291;28;20060;-74
2022/12/08 06:31:37;;;;;;;7.90;5.40;;;;;;;9.42;66.99;100794.22;5063537;28;20033;-74
2022/12/08 06:34:02;;;;;;;8.25;6.13;;;;;;;9.72;64.85;100789.00;5061297;28;20029;-73
2022/12/08 06:36:28;;;;;;;8.48;5.85;;;;;;;9.36;66.14;100792.41;5067173;28;20076;-74
2022/12/08 06:38:54;;;;;;;9.77;6.53;;;;;;;10.39;63.11;100797.00;5062899;28;20032;-74
2022/12/08 06:41:20;;;;;;;11.18;6.40;;;;;;;10.15;62.45;100799.75;5068564;28;20036;-73
2022/12/08 06:43:45;;;;;;;9.68;6.38;;;;;;;10.22;62.69;100795.94;5070500;28;20279;-74
2022/12/08 06:46:15;;;;;;;13.10;6.72;;;;;;;10.24;62.96;100799.22;5069102;28;20035;-74
2022/12/08 06:48:40;;;;;;;8.02;6.55;;;;;;;10.25;63.18;100811.63;5068064;28;20127;-73
2022/12/08 06:51:14;;;;;;;13.50;5.97;;;;;;;9.41;64.99;100821.25;5070635;28;20120;-74
2022/12/08 06:53:40;;;;;;;8.60;6.07;;;;;;;9.06;66.57;100820.84;5065421;28;20055;-73
2022/12/08 06:56:07;;;;;;;8.52;6.35;;;;;;;9.86;64.35;100820.03;5070848;28;20036;-73
2022/12/08 06:58:33;;;;;;;9.98;6.97;;;;;;;9.76;65.32;100825.09;5061676;28;20039;-74
2022/12/08 07:01:07;;;;;;;13.00;7.53;;;;;;;10.55;62.46;100830.47;5060213;28;20020;-74
2022/12/08 07:03:33;;;;;;;20.35;10.75;;;;;;;10.07;64.29;100833.03;5069600;28;20239;-73
2022/12/08 07:05:59;;;;;;;19.13;8.85;;;;;;;10.57;62.91;100833.78;5070917;28;20033;-74
2022/12/08 07:08:24;;;;;;;10.52;6.72;;;;;;;9.51;64.62;100835.00;5064901;28;20555;-74
2022/12/08 07:10:50;;;;;;;10.30;4.85;;;;;;;10.49;62.36;100839.44;5060107;28;20037;-75
2022/12/08 07:13:15;;;;;;;4.50;3.17;;;;;;;10.83;59.72;100832.63;5071413;28;20044;-74
2022/12/08 07:15:40;;;;;;;8.90;2.80;;;;;;;11.04;58.95;100829.44;5068846;28;20093;-73
2022/12/08 07:18:06;;;;;;;4.07;2.50;;;;;;;10.86;59.76;100832.16;5070143;28;20123;-73
2022/12/08 07:20:31;;;;;;;4.18;2.45;;;;;;;10.74;59.84;100824.03;5070608;28;20127;-74
2022/12/08 07:22:56;;;;;;;5.40;1.70;;;;;;;10.92;59.71;100831.25;5064346;28;20028;-74
2022/12/08 07:25:22;;;;;;;4.55;2.10;;;;;;;10.31;60.10;100836.75;5070613;28;20024;-73
2022/12/08 07:27:50;;;;;;;4.80;1.23;;;;;;;10.11;60.89;100836.13;5071908;28;20040;-73
2022/12/08 07:30:16;;;;;;;1.83;1.35;;;;;;;10.27;60.20;100831.00;5069228;28;20049;-75
2022/12/08 07:32:41;;;;;;;2.70;1.27;;;;;;;10.40;60.45;100835.41;5071013;28;20033;-74
2022/12/08 07:35:07;;;;;;;7.78;1.65;;;;;;;10.18;60.63;100842.28;5069991;28;20105;-75
2022/12/08 07:37:34;;;;;;;4.88;2.15;;;;;;;10.19;61.16;100836.66;5065461;28;20051;-74
2022/12/08 07:39:59;;;;;;;3.00;1.98;;;;;;;10.59;59.83;100835.16;5068910;28;20034;-74
2022/12/08 07:42:25;;;;;;;1.88;1.67;;;;;;;10.51;60.03;100837.34;5068828;28;20507;-72
2022/12/08 07:44:50;;;;;;;2.85;2.55;;;;;;;10.44;60.50;100836.59;5067803;28;20062;-73
2022/12/08 07:47:16;;;;;;;8.07;4.55;;;;;;;10.02;61.77;100840.13;5069055;28;20105;-72
2022/12/08 07:49:41;;;;;;;2.95;2.30;;;;;;;10.46;60.75;100834.50;5069740;28;20059;-72
2022/12/08 07:52:06;;;;;;;2.38;1.90;;;;;;;10.39;60.97;100836.47;5070479;28;20131;-73
2022/12/08 07:54:32;;;;;;;7.35;2.40;;;;;;;10.37;60.91;100842.06;5070281;28;20385;-73
2022/12/08 07:56:57;;;;;;;4.28;2.80;;;;;;;10.44;61.08;100831.22;5070062;28;20071;-73
2022/12/08 07:59:23;;;;;;;4.15;2.83;;;;;;;10.60;60.73;100836.00;5068794;28;20098;-73
2022/12/08 08:01:50;;;;;;;3.85;3.10;;;;;;;10.66;60.72;100837.78;5070301;28;20032;-73
2022/12/08 08:04:15;;;;;;;7.00;3.33;;;;;;;10.76;60.08;100845.31;5075084;28;20043;-74
2022/12/08 08:06:41;;;;;;;6.57;3.35;;;;;;;10.52;61.03;100838.97;5076958;28;20044;-73
2022/12/08 08:09:07;;;;;;;5.95;3.80;;;;;;;10.67;60.75;100846.66;5076682;28;20048;-73
2022/12/08 08:11:33;;;;;;;8.45;3.88;;;;;;;10.47;60.87;100839.69;5075426;28;20047;-73
2022/12/08 08:13:58;;;;;;;4.53;3.70;;;;;;;10.76;60.81;100838.06;5075483;28;20157;-73
2022/12/08 08:16:23;;;;;;;8.68;4.65;;;;;;;10.70;60.59;100827.38;5077129;28;20025;-74
2022/12/08 08:18:50;;;;;;;11.02;5.38;;;;;;;10.58;61.88;100828.16;5076173;28;20017;-73
2022/12/08 08:21:17;;;;;;;10.07;6.95;;;;;;;10.45;62.04;100830.19;5076730;28;20097;-74
2022/12/08 08:23:42;;;;;;;8.93;5.30;;;;;;;10.44;62.14;100836.59;5076773;28;20498;-73
2022/12/08 08:26:08;;;;;;;12.02;5.80;;;;;;;10.11;63.18;100833.44;5076742;28;20036;-73
2022/12/08 08:28:33;;;;;;;13.07;6.55;;;;;;;10.23;63.12;100839.72;5076459;28;20119;-74
2022/12/08 08:31:02;;;;;;;7.00;6.22;;;;;;;9.80;64.38;100831.66;5077174;28;20024;-75
2022/12/08 08:33:27;;;;;;;9.60;7.28;;;;;;;10.47;62.50;100838.84;5076529;28;20119;-72
2022/12/08 08:35:53;;;;;;;11.38;6.80;;;;;;;10.44;62.39;100833.91;5076306;28;20037;-74
2022/12/08 08:38:19;;;;;;;11.10;7.53;;;;;;;10.80;61.41;100844.63;5076527;28;20048;-74
2022/12/08 08:40:45;;;;;;;11.43;7.55;;;;;;;10.44;62.37;100839.28;5076617;28;20040;-73
2022/12/08 08:43:27;;;;;;;12.85;7.15;;;;;;;10.80;61.51;100830.38;5076622;28;20025;-74
2022/12/08 08:46:02;;;;;;;10.48;6.88;;;;;;;10.04;64.40;100836.19;5076641;28;20094;-73
2022/12/08 08:48:29;;;;;;;12.55;7.63;;;;;;;10.43;63.16;100835.78;5056219;28;20040;-73
2022/12/08 08:50:56;;;;;;;15.15;7.95;;;;;;;10.08;63.99;100841.94;5056623;28;20439;-74
2022/12/08 08:53:22;;;;;;;10.23;6.32;;;;;;;9.88;64.68;100835.91;5064718;28;20071;-71
2022/12/08 08:55:48;;;;;;;8.45;5.70;;;;;;;10.25;63.47;100841.16;5072998;28;20032;-72
2022/12/08 08:58:14;;;;;;;14.65;7.78;;;;;;;10.44;62.96;100833.91;5076622;28;20059;-72
2022/12/08 09:00:39;;;;;;;8.93;7.40;;;;;;;10.47;63.29;100833.47;5076209;28;20020;-73
2022/12/08 09:03:05;;;;;;;12.27;6.72;;;;;;;9.86;65.23;100830.78;5075657;28;20032;-73
2022/12/08 09:05:31;;;;;;;18.92;8.32;;;;;;;10.54;62.86;100826.16;5066287;28;20557;-73
2022/12/08 09:07:56;;;;;;;10.75;8.45;;;;;;;10.83;62.02;100829.94;5075866;28;20064;-72
2022/12/08 09:10:21;;;;;;;14.23;7.28;;;;;;;10.43;62.62;100826.91;5075584;28;20107;-74
2022/12/08 09:12:47;;;;;;;15.57;7.35;;;;;;;10.55;62.94;100833.97;5076356;28;20036;-71
2022/12/08 09:15:12;;;;;;;13.93;8.52;;;;;;;10.50;62.93;100828.47;5071717;28;20063;-71
2022/12/08 09:17:39;;;;;;;11.55;8.40;;;;;;;10.35;62.70;100827.19;5071404;28;20131;-72
2022/12/08 09:20:06;;;;;;;11.98;6.97;;;;;;;10.10;64.13;100826.44;5072249;28;20044;-71
2022/12/08 09:22:31;;;;;;;10.57;6.18;;;;;;;9.86;65.54;100835.31;5072563;28;20108;-74
2022/12/08 09:24:57;;;;;;;15.18;6.90;;;;;;;10.27;64.35;100835.56;5073195;28;20139;-73
2022/12/08 09:27:22;;;;;;;10.85;6.15;;;;;;;10.23;63.89;100829.81;5072374;28;20465;-73
2022/12/08 09:29:47;;;;;;;19.77;10.10;;;;;;;10.17;64.60;100832.56;5070144;28;20033;-72
2022/12/08 09:32:13;;;;;;;11.35;7.65;;;;;;;10.60;63.05;100822.56;5072264;28;20032;-72
2022/12/08 09:34:38;;;;;;;10.00;6.93;;;;;;;9.83;65.43;100823.16;5072427;28;20484;-72
2022/12/08 09:37:04;;;;;;;9.85;7.47;;;;;;;10.71;62.42;100829.88;5073034;28;20498;-72
2022/12/08 09:39:29;;;;;;;11.25;6.85;;;;;;;10.50;62.98;100824.94;5072315;28;20119;-72
2022/12/08 09:42:01;;;;;;;11.52;7.72;;;;;;;10.57;62.74;100818.44;5072192;28;20037;-72
2022/12/08 09:44:43;;;;;;;9.75;6.95;;;;;;;11.12;61.14;100823.72;5069260;28;20110;-72
2022/12/08 09:47:27;;;;;;;10.77;6.43;;;;;;;10.87;61.45;100829.22;5068182;28;20040;-73
2022/12/08 09:50:03;;;;;;;10.05;6.20;;;;;;;10.63;62.83;100827.50;5070156;28;20036;-71
2022/12/08 09:52:38;;;;;;;10.63;6.72;;;;;;;10.61;63.02;100829.59;5069704;28;20033;-72
2022/12/08 09:55:29;;;;;;;14.68;6.90;;;;;;;10.94;61.60;100829.97;5072810;28;20157;-73
2022/12/08 09:58:02;;;;;;;17.80;6.93;;;;;;;10.84;62.31;100828.88;5069761;28;20037;-71
2022/12/08 10:00:27;;;;;;;10.77;6.55;;;;;;;10.78;62.07;100827.91;5069576;28;20476;-72
2022/12/08 10:02:55;;;;;;;9.45;6.38;;;;;;;10.40;63.56;100830.03;5070769;28;20031;-71
2022/12/08 10:05:24;;;;;;;15.07;6.43;;;;;;;10.63;62.92;100828.28;5071974;28;20432;-71
2022/12/08 10:08:32;;;;;;;7.50;6.07;;;;;;;10.02;64.19;100822.16;5069353;28;20055;-72
2022/12/08 10:11:08;;;;;;;8.80;5.68;;;;;;;10.08;64.28;100826.66;4978262;28;20057;-73
2022/12/08 10:13:41;;;;;;;8.98;5.43;;;;;;;10.88;62.72;100817.44;4981229;28;20034;-72
2022/12/08 10:16:23;;;;;;;28.90;11.20;;;;;;;10.93;61.31;100819.47;4982011;28;20035;-72
2022/12/08 10:18:59;;;;;;;18.90;9.75;;;;;;;10.56;63.33;100826.75;4975384;28;20626;-73
2022/12/08 10:21:28;;;;;;;14.75;9.75;;;;;;;10.15;64.23;100818.53;4970714;28;20549;-72
2022/12/08 10:24:04;;;;;;;7.95;6.22;;;;;;;10.10;64.53;100821.06;4970623;28;20130;-71
2022/12/08 10:26:31;;;;;;;9.25;6.10;;;;;;;9.96;64.62;100814.16;4970557;28;20134;-72
2022/12/08 10:29:01;;;;;;;6.90;5.57;;;;;;;10.35;63.04;100813.78;4984342;28;20042;-74
2022/12/08 10:31:29;;;;;;;10.65;6.03;;;;;;;9.97;65.37;100810.41;4989730;28;20379;-72
2022/12/08 10:34:00;;;;;;;9.40;4.53;;;;;;;9.96;65.05;100804.25;4990215;28;20041;-73
2022/12/08 10:36:53;;;;;;;6.97;4.57;;;;;;;10.39;64.00;100799.69;4989942;28;20042;-71
2022/12/08 10:39:39;;;;;;;5.68;4.53;;;;;;;9.16;67.69;100799.75;4931663;29;20036;-72
2022/12/08 10:42:13;;;;;;;7.53;4.88;;;;;;;9.24;67.22;100807.53;4970402;28;20120;-73
2022/12/08 10:44:56;;;;;;;8.85;4.57;;;;;;;9.79;66.36;100797.78;4989703;28;20113;-73
2022/12/08 10:47:24;;;;;;;7.45;4.68;;;;;;;9.95;64.94;100805.28;4989609;28;20072;-72
2022/12/08 10:50:16;;;;;;;9.45;5.18;;;;;;;10.21;65.14;100798.84;4989261;28;20042;-72
2022/12/08 10:52:42;;;;;;;7.55;4.70;;;;;;;10.88;63.16;100792.41;4989397;28;20176;-73
2022/12/08 10:55:17;;;;;;;11.73;4.40;;;;;;;9.99;66.11;100795.75;4990036;28;20117;-72
2022/12/08 10:57:42;;;;;;;4.43;3.60;;;;;;;9.61;66.83;100795.09;4989436;28;20054;-74
2022/12/08 11:00:13;;;;;;;6.90;4.20;;;;;;;10.04;64.45;100795.09;4989417;28;20551;-74
2022/12/08 11:03:12;;;;;;;7.07;4.28;;;;;;;10.54;64.46;100783.16;4989672;28;20054;-73
2022/12/08 11:05:40;;;;;;;5.60;3.47;;;;;;;9.79;65.81;100776.31;5007739;28;20128;-71
2022/12/08 11:08:07;;;;;;;4.95;3.90;;;;;;;9.85;65.89;100775.44;5008789;28;20034;-73
2022/12/08 11:10:36;;;;;;;8.30;4.05;;;;;;;9.23;67.53;100781.78;5008386;28;20058;-72
2022/12/08 11:13:05;;;;;;;4.35;3.67;;;;;;;9.62;65.59;100781.47;5009263;28;20523;-73
2022/12/08 11:15:37;;;;;;;6.15;3.80;;;;;;;10.24;63.96;100769.66;5016451;28;20085;-73
2022/12/08 11:18:19;;;;;;;8.13;3.92;;;;;;;10.55;63.18;100772.16;5049342;28;20682;-73
2022/12/08 11:20:44;;;;;;;8.57;3.90;;;;;;;9.56;65.45;100778.81;5050536;28;20420;-72
2022/12/08 11:23:25;;;;;;;4.32;2.88;;;;;;;10.58;62.61;100769.03;5060019;28;20123;-72
2022/12/08 11:25:55;;;;;;;5.25;3.38;;;;;;;10.71;61.65;100778.81;5070406;28;20036;-73
2022/12/08 11:28:23;;;;;;;8.45;3.55;;;;;;;10.33;64.10;100780.94;5070590;28;20043;-71
2022/12/08 11:31:07;;;;;;;6.63;3.67;;;;;;;10.40;63.16;100766.38;5071064;28;20036;-71
2022/12/08 11:33:33;;;;;;;9.55;4.13;;;;;;;10.60;62.76;100768.81;5070353;28;20572;-73
2022/12/08 11:36:08;;;;;;;7.82;3.83;;;;;;;10.86;61.80;100773.00;5070792;28;20131;-71
2022/12/08 11:38:40;;;;;;;8.07;3.13;;;;;;;10.71;60.78;100768.06;5069707;28;20386;-72
2022/12/08 11:41:10;;;;;;;5.28;3.05;;;;;;;10.32;61.36;100768.53;5062201;28;20036;-71
2022/12/08 11:43:47;;;;;;;4.55;3.25;;;;;;;10.41;62.29;100769.91;5070240;28;20157;-71